createdAt,value
2022-10-21T00:02:11.908Z,24.50
2022-10-21T00:04:42.838Z,24.50
2022-10-21T00:07:13.304Z,24.50
2022-10-21T00:09:43.778Z,24.50
2022-10-21T00:12:14.295Z,24.50
2022-10-21T00:14:44.374Z,24.50
2022-10-21T00:17:14.384Z,24.60
2022-10-21T00:19:47.875Z,24.50
2022-10-21T00:22:17.863Z,24.50
2022-10-21T00:24:47.910Z,24.50
2022-10-21T00:27:17.959Z,24.50
2022-10-21T00:29:47.938Z,24.50
2022-10-21T00:32:17.962Z,24.50
2022-10-21T00:34:48.249Z,24.50
2022-10-21T00:37:18.749Z,24.50
2022-10-21T00:39:48.740Z,24.50
2022-10-21T00:42:20.874Z,24.50
2022-10-21T00:45:09.496Z,24.50
2022-10-21T00:47:49.079Z,24.50
2022-10-21T00:50:26.481Z,24.50
2022-10-21T00:52:57.386Z,24.60
2022-10-21T00:55:27.790Z,24.50
2022-10-21T00:57:57.856Z,24.60
2022-10-21T01:00:28.005Z,24.50
2022-10-21T01:02:58.428Z,24.60
2022-10-21T01:05:28.470Z,24.60
2022-10-21T01:07:58.513Z,24.60
2022-10-21T01:10:28.581Z,24.60
2022-10-21T01:12:58.767Z,24.70
2022-10-21T01:15:56.402Z,24.70
2022-10-21T01:18:26.462Z,24.70
2022-10-21T01:21:11.765Z,24.70
2022-10-21T01:23:48.332Z,24.70
2022-10-21T01:26:24.425Z,24.70
2022-10-21T01:29:02.822Z,24.80
2022-10-21T01:31:38.868Z,23.80
2022-10-21T01:34:33.112Z,19.40
2022-10-21T01:37:12.094Z,16.90
2022-10-21T01:40:07.116Z,15.50
2022-10-21T01:42:44.695Z,14.80
2022-10-21T01:45:20.793Z,14.10
2022-10-21T01:47:52.904Z,15.30
2022-10-21T01:50:30.616Z,15.90
2022-10-21T01:53:03.437Z,17.80
2022-10-21T01:55:33.932Z,19.60
2022-10-21T01:58:13.329Z,20.70
2022-10-21T02:00:43.532Z,21.30
2022-10-21T02:03:15.329Z,21.70
2022-10-21T02:05:45.437Z,22.00
2022-10-21T02:08:15.483Z,22.20
2022-10-21T02:10:49.585Z,22.30
2022-10-21T02:13:31.749Z,22.40
2022-10-21T02:16:03.049Z,22.50
2022-10-21T02:18:33.041Z,22.60
2022-10-21T02:21:08.398Z,22.70
2022-10-21T02:24:09.422Z,22.70
2022-10-21T02:26:39.466Z,22.80
2022-10-21T02:29:09.653Z,22.90
2022-10-21T02:31:53.131Z,22.90
2022-10-21T02:34:31.397Z,23.00
2022-10-21T02:37:17.120Z,23.10
2022-10-21T02:40:27.390Z,23.10
2022-10-21T02:43:04.503Z,23.20
2022-10-21T02:45:34.825Z,23.20
2022-10-21T02:48:05.523Z,23.20
2022-10-21T02:50:35.574Z,23.30
2022-10-21T02:53:05.648Z,23.40
2022-10-21T02:55:35.774Z,23.40
2022-10-21T02:58:05.933Z,23.40
2022-10-21T03:00:35.912Z,23.40
2022-10-21T03:03:05.971Z,23.50
2022-10-21T03:05:36.058Z,23.50
2022-10-21T03:08:07.743Z,23.50
2022-10-21T03:10:38.051Z,23.60
2022-10-21T03:13:08.762Z,23.60
2022-10-21T03:15:38.928Z,23.60
2022-10-21T03:18:09.140Z,23.60
2022-10-21T03:20:39.540Z,23.60
2022-10-21T03:23:09.494Z,23.70
2022-10-21T03:25:39.475Z,23.70
2022-10-21T03:28:10.758Z,23.70
2022-10-21T03:30:41.372Z,23.80
2022-10-21T03:33:11.431Z,23.80
2022-10-21T03:35:41.545Z,23.80
2022-10-21T03:38:11.654Z,23.80
2022-10-21T03:40:44.310Z,23.80
2022-10-21T03:43:14.351Z,23.90
2022-10-21T03:45:44.406Z,23.90
2022-10-21T03:48:15.047Z,23.90
2022-10-21T03:50:45.950Z,23.90
2022-10-21T03:53:30.828Z,23.90
2022-10-21T03:56:06.118Z,23.90
2022-10-21T03:58:45.803Z,24.00
2022-10-21T04:01:15.962Z,24.00
2022-10-21T04:03:45.974Z,24.00
2022-10-21T04:06:16.031Z,24.00
2022-10-21T04:09:07.203Z,24.00
2022-10-21T04:11:37.295Z,24.10
2022-10-21T04:14:10.298Z,24.10
2022-10-21T04:16:43.212Z,24.10
2022-10-21T04:19:17.331Z,24.10
2022-10-21T04:21:47.502Z,24.10
2022-10-21T04:24:17.745Z,24.10
2022-10-21T04:26:47.770Z,24.10
2022-10-21T04:29:17.784Z,24.10
2022-10-21T04:31:47.849Z,24.10
2022-10-21T04:34:17.932Z,24.20
2022-10-21T04:36:47.955Z,23.90
2022-10-21T04:39:18.071Z,24.20
2022-10-21T04:41:51.093Z,24.20
2022-10-21T04:44:21.148Z,24.20
2022-10-21T04:46:51.175Z,24.20
2022-10-21T04:49:21.431Z,24.20
2022-10-21T04:51:51.422Z,24.20
2022-10-21T04:54:21.480Z,24.20
2022-10-21T04:56:51.679Z,24.20
2022-10-21T04:59:21.746Z,24.30
2022-10-21T05:01:51.951Z,24.30
2022-10-21T05:04:22.051Z,24.30
2022-10-21T05:06:52.078Z,24.30
2022-10-21T05:09:22.125Z,24.30
2022-10-21T05:11:52.177Z,24.30
2022-10-21T05:14:22.882Z,24.30
2022-10-21T05:16:53.212Z,24.30
2022-10-21T05:19:24.745Z,24.30
2022-10-21T05:21:56.620Z,24.30
2022-10-21T05:24:26.729Z,24.30
2022-10-21T05:26:56.695Z,24.30
2022-10-21T05:29:26.741Z,24.40
2022-10-21T05:31:56.690Z,24.30
2022-10-21T05:34:26.676Z,24.40
2022-10-21T05:36:56.784Z,24.40
2022-10-21T05:39:26.887Z,24.40
2022-10-21T05:41:57.005Z,24.40
2022-10-21T05:44:26.998Z,24.40
2022-10-21T05:46:56.987Z,24.50
2022-10-21T05:49:26.961Z,24.50
2022-10-21T05:51:57.037Z,24.50
2022-10-21T05:54:27.145Z,24.50
2022-10-21T05:57:00.022Z,24.50
2022-10-21T05:59:30.068Z,24.50
2022-10-21T06:02:00.051Z,24.50
2022-10-21T06:04:46.851Z,24.50
2022-10-21T06:07:16.987Z,24.50
2022-10-21T06:09:46.972Z,24.50
2022-10-21T06:12:17.025Z,24.50
2022-10-21T06:14:47.208Z,24.50
2022-10-21T06:17:17.295Z,24.50
2022-10-21T06:19:50.176Z,24.50
2022-10-21T06:22:21.233Z,24.50
2022-10-21T06:24:51.919Z,24.60
2022-10-21T06:27:22.058Z,24.60
2022-10-21T06:29:52.496Z,24.70
2022-10-21T06:32:22.567Z,24.70
2022-10-21T06:34:52.551Z,24.70
2022-10-21T06:37:22.600Z,24.70
2022-10-21T06:39:52.770Z,24.70
2022-10-21T06:42:22.839Z,24.60
2022-10-21T06:44:55.505Z,24.60
2022-10-21T06:47:27.967Z,24.70
2022-10-21T06:49:58.109Z,24.70
2022-10-21T06:52:28.134Z,24.70
2022-10-21T06:54:58.207Z,24.70
2022-10-21T06:57:28.994Z,24.70
2022-10-21T06:59:59.144Z,24.70
2022-10-21T07:02:37.155Z,24.70
2022-10-21T07:05:07.723Z,24.70
2022-10-21T07:07:38.205Z,24.70
2022-10-21T07:10:08.687Z,24.70
2022-10-21T07:12:38.675Z,24.70
2022-10-21T07:15:09.134Z,24.70
2022-10-21T07:17:39.420Z,24.70
2022-10-21T07:20:10.107Z,24.70
2022-10-21T07:22:40.089Z,24.70
2022-10-21T07:25:10.318Z,24.80
2022-10-21T07:27:42.256Z,24.80
2022-10-21T07:30:14.935Z,24.80
2022-10-21T07:32:44.996Z,24.80
2022-10-21T07:35:14.979Z,24.80
2022-10-21T07:37:45.090Z,24.80
2022-10-21T07:40:15.647Z,24.90
2022-10-21T07:42:45.619Z,24.90
2022-10-21T07:45:15.740Z,24.90
2022-10-21T07:47:45.718Z,24.90
2022-10-21T07:50:15.899Z,25.00
2022-10-21T07:52:58.293Z,25.00
2022-10-21T07:55:33.969Z,25.00
2022-10-21T07:58:04.043Z,25.00
2022-10-21T08:00:34.061Z,25.00
2022-10-21T08:03:04.120Z,25.00
2022-10-21T08:05:34.157Z,25.00
2022-10-21T08:08:04.195Z,25.00
2022-10-21T08:10:35.088Z,25.00
2022-10-21T08:13:05.201Z,25.00
2022-10-21T08:15:35.964Z,25.10
2022-10-21T08:18:06.038Z,25.10
2022-10-21T08:20:36.768Z,25.10
2022-10-21T08:23:06.876Z,24.80
2022-10-21T08:25:37.182Z,25.10
2022-10-21T08:28:08.032Z,25.10
2022-10-21T08:30:38.155Z,25.10
2022-10-21T08:33:08.280Z,25.10
2022-10-21T08:35:39.300Z,25.10
2022-10-21T08:38:12.037Z,25.10
2022-10-21T08:40:50.984Z,25.10
2022-10-21T08:43:35.024Z,25.10
2022-10-21T08:46:09.601Z,25.10
2022-10-21T08:48:47.268Z,25.10
2022-10-21T08:51:32.847Z,25.10
2022-10-21T08:54:23.432Z,25.10
2022-10-21T08:56:53.490Z,25.10
2022-10-21T08:59:26.644Z,25.10
2022-10-21T09:02:15.277Z,25.10
2022-10-21T09:04:58.015Z,25.10
2022-10-21T09:07:49.657Z,25.10
2022-10-21T09:10:45.334Z,25.10
2022-10-21T09:13:19.153Z,25.10
2022-10-21T09:16:10.530Z,25.10
2022-10-21T09:18:49.982Z,25.10
2022-10-21T09:21:22.862Z,25.10
2022-10-21T09:24:07.943Z,25.10
2022-10-21T09:26:41.085Z,25.10
2022-10-21T09:29:24.447Z,25.10
2022-10-21T09:32:01.309Z,25.20
2022-10-21T09:35:06.597Z,25.20
2022-10-21T09:37:46.039Z,25.20
2022-10-21T09:40:23.427Z,25.20
2022-10-21T09:42:57.110Z,25.20
2022-10-21T09:45:40.368Z,25.20
2022-10-21T09:48:19.412Z,25.20
2022-10-21T09:50:55.271Z,25.20
2022-10-21T09:53:37.736Z,25.20
2022-10-21T09:56:46.606Z,25.20
2022-10-21T09:59:20.207Z,25.20
2022-10-21T10:01:50.354Z,25.20
2022-10-21T10:04:32.042Z,25.30
2022-10-21T10:07:29.681Z,25.20
2022-10-21T10:09:59.713Z,25.20
2022-10-21T10:12:33.018Z,25.20
2022-10-21T10:15:36.592Z,25.20
2022-10-21T10:18:06.768Z,25.10
2022-10-21T10:20:36.871Z,25.20
2022-10-21T10:23:10.628Z,25.10
2022-10-21T10:25:41.041Z,25.10
2022-10-21T10:28:11.126Z,25.10
2022-10-21T10:30:52.118Z,25.10
2022-10-21T10:33:23.263Z,25.10
2022-10-21T10:36:01.054Z,25.10
2022-10-21T10:38:36.776Z,25.20
2022-10-21T10:41:11.519Z,25.20
2022-10-21T10:43:55.425Z,25.20
2022-10-21T10:46:30.309Z,25.20
2022-10-21T10:49:25.468Z,25.10
2022-10-21T10:52:11.519Z,25.10
2022-10-21T10:54:42.422Z,25.10
2022-10-21T10:57:34.129Z,25.10
2022-10-21T11:00:46.601Z,25.10
2022-10-21T11:03:31.346Z,25.10
2022-10-21T11:06:15.415Z,25.10
2022-10-21T11:08:51.817Z,25.00
2022-10-21T11:11:30.518Z,25.00
2022-10-21T11:17:07.847Z,25.00
2022-10-21T11:19:46.246Z,25.00
2022-10-21T11:22:40.320Z,25.00
2022-10-21T11:25:19.064Z,24.90
2022-10-21T11:27:55.247Z,24.90
2022-10-21T11:30:30.447Z,24.90
2022-10-21T11:33:03.524Z,25.20
2022-10-21T11:35:43.940Z,24.90
2022-10-21T11:38:49.400Z,24.90
2022-10-21T11:41:36.459Z,24.90
2022-10-21T11:44:26.054Z,24.90
2022-10-21T11:47:16.701Z,24.90
2022-10-21T11:50:02.020Z,24.90
2022-10-21T11:53:15.716Z,24.90
2022-10-21T11:56:10.725Z,24.90
2022-10-21T11:59:02.236Z,24.90
2022-10-21T12:01:39.231Z,24.90
2022-10-21T12:04:22.962Z,24.90
2022-10-21T12:06:59.010Z,24.90
2022-10-21T12:09:32.551Z,24.90
2022-10-21T12:12:12.743Z,24.90
2022-10-21T12:14:59.226Z,24.90
2022-10-21T12:17:29.342Z,24.90
2022-10-21T12:20:01.006Z,24.80
2022-10-21T12:22:32.184Z,24.80
2022-10-21T12:25:14.461Z,24.80
2022-10-21T12:28:12.747Z,24.80
2022-10-21T12:31:12.829Z,24.80
2022-10-21T12:33:44.531Z,24.80
2022-10-21T12:36:17.974Z,24.80
2022-10-21T12:38:51.648Z,24.80
2022-10-21T12:41:44.424Z,24.80
2022-10-21T12:44:25.134Z,24.80
2022-10-21T12:46:57.172Z,24.90
2022-10-21T12:49:36.941Z,24.90
2022-10-21T12:52:18.852Z,24.90
2022-10-21T12:55:03.219Z,24.90
2022-10-21T12:57:36.339Z,24.90
2022-10-21T13:00:38.759Z,24.90
2022-10-21T13:03:12.464Z,24.90
2022-10-21T13:05:44.085Z,24.90
2022-10-21T13:08:17.287Z,24.90
2022-10-21T13:11:09.249Z,24.90
2022-10-21T13:13:43.289Z,24.90
2022-10-21T13:16:22.669Z,24.90
2022-10-21T13:19:16.281Z,24.90
2022-10-21T13:21:50.697Z,24.90
2022-10-21T13:24:29.275Z,24.90
2022-10-21T13:27:01.218Z,24.90
2022-10-21T13:29:34.315Z,24.90
2022-10-21T13:32:23.047Z,24.90
2022-10-21T13:34:53.447Z,24.90
2022-10-21T13:37:35.037Z,24.90
2022-10-21T13:40:17.291Z,24.90
2022-10-21T13:43:00.359Z,24.90
2022-10-21T13:45:30.583Z,24.90
2022-10-21T13:48:08.768Z,24.90
2022-10-21T13:50:43.192Z,24.90
2022-10-21T13:53:29.786Z,24.90
2022-10-21T13:56:02.128Z,24.90
2022-10-21T13:58:37.160Z,24.90
2022-10-21T14:01:22.848Z,24.90
2022-10-21T14:03:53.875Z,24.90
2022-10-21T14:06:38.084Z,24.90
2022-10-21T14:09:11.102Z,24.90
2022-10-21T14:11:50.012Z,24.90
2022-10-21T14:14:22.635Z,24.90
2022-10-21T14:17:00.631Z,24.90
2022-10-21T14:19:34.123Z,24.90
2022-10-21T14:22:04.359Z,24.90
2022-10-21T14:24:47.361Z,24.90
2022-10-21T14:27:20.099Z,24.90
2022-10-21T14:29:50.177Z,24.80
2022-10-21T14:32:21.843Z,24.80
2022-10-21T14:35:11.832Z,24.80
2022-10-21T14:37:52.679Z,24.80
2022-10-21T14:40:30.678Z,24.80
2022-10-21T14:43:22.963Z,24.80
2022-10-21T14:45:53.863Z,24.80
2022-10-21T14:48:30.057Z,24.80
2022-10-21T14:51:03.682Z,24.80
2022-10-21T14:53:37.088Z,24.90
2022-10-21T14:56:07.083Z,24.80
2022-10-21T14:58:38.278Z,24.80
2022-10-21T15:01:15.236Z,24.80
2022-10-21T15:03:50.339Z,24.80
2022-10-21T15:06:28.420Z,24.80
2022-10-21T15:08:58.900Z,24.80
2022-10-21T15:11:30.104Z,24.80
2022-10-21T15:14:16.182Z,24.80
2022-10-21T15:17:00.160Z,24.80
2022-10-21T15:19:44.308Z,24.80
2022-10-21T15:22:40.580Z,24.80
2022-10-21T15:25:15.569Z,24.90
2022-10-21T15:27:45.942Z,24.80
2022-10-21T15:30:20.859Z,24.80
2022-10-21T15:32:51.147Z,24.80
2022-10-21T15:35:23.895Z,24.80
2022-10-21T15:37:55.441Z,24.80
2022-10-21T15:40:25.864Z,24.80
2022-10-21T15:42:57.892Z,24.80
2022-10-21T15:45:27.936Z,24.80
2022-10-21T15:47:58.113Z,24.80
2022-10-21T15:50:28.416Z,24.80
2022-10-21T15:52:59.631Z,24.80
2022-10-21T15:55:29.820Z,24.80
2022-10-21T15:57:59.940Z,24.80
2022-10-21T16:00:29.969Z,24.80
2022-10-21T16:03:00.574Z,24.80
2022-10-21T16:05:30.949Z,24.80
2022-10-21T16:08:00.991Z,24.80
2022-10-21T16:10:33.524Z,24.80
2022-10-21T16:13:03.919Z,24.80
2022-10-21T16:15:33.914Z,24.80
2022-10-21T16:18:03.979Z,24.80
2022-10-21T16:20:36.604Z,24.80
2022-10-21T16:23:07.944Z,24.80
2022-10-21T16:25:38.336Z,24.80
2022-10-21T16:28:12.966Z,24.80
2022-10-21T16:30:43.111Z,24.70
2022-10-21T16:33:13.957Z,24.80
2022-10-21T16:35:44.480Z,24.80
2022-10-21T16:38:14.623Z,24.80
2022-10-21T16:40:44.853Z,24.80
2022-10-21T16:43:17.299Z,24.80
2022-10-21T16:45:47.291Z,24.80
2022-10-21T16:48:17.477Z,24.80
2022-10-21T16:50:49.197Z,24.80
2022-10-21T16:53:19.278Z,24.80
2022-10-21T16:55:49.316Z,24.90
2022-10-21T16:58:19.336Z,24.80
2022-10-21T17:00:49.886Z,24.80
2022-10-21T17:03:20.052Z,24.80
2022-10-21T17:05:51.570Z,24.90
2022-10-21T17:08:21.562Z,24.80
2022-10-21T17:10:52.035Z,24.80
2022-10-21T17:13:22.107Z,24.80
2022-10-21T17:15:52.115Z,24.80
2022-10-21T17:18:22.103Z,24.80
2022-10-21T17:20:52.150Z,24.80
2022-10-21T17:23:25.034Z,24.90
2022-10-21T17:25:55.194Z,24.80
2022-10-21T17:28:25.295Z,24.80
2022-10-21T17:30:56.069Z,24.80
2022-10-21T17:33:26.142Z,25.10
2022-10-21T17:35:56.174Z,24.90
2022-10-21T17:38:26.204Z,24.90
2022-10-21T17:40:56.315Z,24.90
2022-10-21T17:43:26.386Z,24.80
2022-10-21T17:45:56.370Z,24.80
2022-10-21T17:48:29.322Z,24.80
2022-10-21T17:51:01.133Z,24.80
2022-10-21T17:53:32.003Z,24.80
2022-10-21T17:56:03.769Z,24.80
2022-10-21T17:58:33.938Z,24.90
2022-10-21T18:01:09.269Z,24.90
2022-10-21T18:03:39.515Z,24.90
2022-10-21T18:06:10.914Z,24.90
2022-10-21T18:08:40.989Z,24.90
2022-10-21T18:11:13.014Z,24.80
2022-10-21T18:13:43.328Z,24.80
2022-10-21T18:16:15.387Z,24.80
2022-10-21T18:18:45.497Z,24.90
2022-10-21T18:21:20.287Z,24.80
2022-10-21T18:23:51.964Z,24.80
2022-10-21T18:26:29.847Z,24.80
2022-10-21T18:29:01.508Z,24.80
2022-10-21T18:31:33.915Z,24.80
2022-10-21T18:34:05.106Z,24.80
2022-10-21T18:36:35.153Z,24.90
2022-10-21T18:39:05.411Z,24.80
2022-10-21T18:41:35.549Z,24.80
2022-10-21T18:44:09.437Z,24.80
2022-10-21T18:46:40.305Z,24.80
2022-10-21T18:49:14.590Z,24.80
2022-10-21T18:51:44.708Z,24.80
2022-10-21T18:54:16.297Z,24.80
2022-10-21T18:56:46.622Z,24.80
2022-10-21T18:59:17.067Z,24.80
2022-10-21T19:01:47.432Z,24.80
2022-10-21T19:04:17.707Z,24.80
2022-10-21T19:06:48.131Z,24.80
2022-10-21T19:09:19.730Z,24.80
2022-10-21T19:11:50.062Z,24.80
2022-10-21T19:14:20.504Z,24.80
2022-10-21T19:16:50.673Z,24.80
2022-10-21T19:19:20.744Z,24.80
2022-10-21T19:21:50.864Z,24.80
2022-10-21T19:24:21.703Z,24.80
2022-10-21T19:26:56.454Z,24.80
2022-10-21T19:29:26.887Z,24.80
2022-10-21T19:31:57.166Z,24.80
2022-10-21T19:34:30.128Z,24.80
2022-10-21T19:37:00.172Z,24.80
2022-10-21T19:39:30.226Z,24.80
2022-10-21T19:42:00.778Z,24.80
2022-10-21T19:44:30.908Z,24.80
2022-10-21T19:47:00.978Z,24.80
2022-10-21T19:49:31.046Z,24.80
2022-10-21T19:52:01.854Z,24.80
2022-10-21T19:54:34.664Z,24.80
2022-10-21T19:57:04.748Z,24.80
2022-10-21T19:59:34.884Z,24.80
2022-10-21T20:02:04.974Z,24.80
2022-10-21T20:04:36.026Z,24.80
2022-10-21T20:07:06.224Z,24.80
2022-10-21T20:09:38.005Z,24.80
2022-10-21T20:12:08.975Z,24.90
2022-10-21T20:14:39.088Z,24.80
2022-10-21T20:17:09.183Z,24.80
2022-10-21T20:19:39.331Z,24.80
2022-10-21T20:22:09.401Z,24.80
2022-10-21T20:24:42.045Z,24.80
2022-10-21T20:27:14.389Z,24.80
2022-10-21T20:29:44.436Z,24.80
2022-10-21T20:32:14.552Z,24.80
2022-10-21T20:34:44.682Z,24.80
2022-10-21T20:37:14.816Z,24.80
2022-10-21T20:39:44.999Z,24.80
2022-10-21T20:42:15.110Z,24.80
2022-10-21T20:47:16.438Z,24.80
2022-10-21T20:49:46.520Z,24.80
2022-10-21T20:52:16.783Z,24.80
2022-10-21T20:54:46.785Z,24.80
2022-10-21T20:57:17.151Z,24.80
2022-10-21T20:59:47.171Z,24.80
2022-10-21T21:02:17.191Z,24.90
2022-10-21T21:04:47.186Z,24.80
2022-10-21T21:07:17.233Z,24.80
2022-10-21T21:10:03.474Z,24.80
2022-10-21T21:12:33.911Z,24.80
2022-10-21T21:15:04.957Z,24.80
2022-10-21T21:17:35.015Z,24.80
2022-10-21T21:20:05.136Z,24.80
2022-10-21T21:22:38.422Z,24.80
2022-10-21T21:25:09.255Z,24.80
2022-10-21T21:27:39.333Z,24.80
2022-10-21T21:30:10.038Z,24.80
2022-10-21T21:32:40.273Z,24.80
2022-10-21T21:35:10.978Z,24.80
2022-10-21T21:37:40.958Z,24.80
2022-10-21T21:40:11.773Z,24.80
2022-10-21T21:42:41.979Z,24.90
2022-10-21T21:45:13.373Z,24.80
2022-10-21T21:47:43.388Z,24.80
2022-10-21T21:50:14.246Z,24.80
2022-10-21T21:52:44.515Z,24.80
2022-10-21T21:55:14.838Z,24.80
2022-10-21T21:57:44.885Z,24.80
2022-10-21T22:00:15.425Z,24.80
2022-10-21T22:02:45.852Z,24.80
2022-10-21T22:05:16.872Z,24.80
2022-10-21T22:07:47.206Z,24.80
2022-10-21T22:10:17.347Z,24.80
2022-10-21T22:12:47.540Z,24.80
2022-10-21T22:15:36.105Z,24.80
2022-10-21T22:18:08.191Z,24.80
2022-10-21T22:20:41.002Z,24.80
2022-10-21T22:23:10.990Z,24.80
2022-10-21T22:25:41.239Z,24.80
2022-10-21T22:28:11.252Z,24.80
2022-10-21T22:30:41.264Z,24.80
2022-10-21T22:33:11.286Z,24.80
2022-10-21T22:35:41.317Z,24.80
2022-10-21T22:38:11.388Z,24.80
2022-10-21T22:40:41.513Z,24.80
2022-10-21T22:43:11.646Z,24.80
2022-10-21T22:45:42.605Z,24.80
2022-10-21T22:48:13.359Z,24.80
2022-10-21T22:50:43.377Z,24.80
2022-10-21T22:53:13.641Z,24.80
2022-10-21T22:55:43.957Z,24.80
2022-10-21T22:58:18.330Z,24.80
2022-10-21T23:00:49.563Z,24.80
2022-10-21T23:03:20.223Z,24.80
2022-10-21T23:05:50.632Z,24.80
2022-10-21T23:08:20.759Z,24.80
2022-10-21T23:10:50.873Z,24.80
2022-10-21T23:13:20.959Z,24.80
2022-10-21T23:15:51.081Z,24.80
2022-10-21T23:18:21.205Z,24.80
2022-10-21T23:20:51.299Z,24.80
2022-10-21T23:23:21.401Z,24.80
2022-10-21T23:25:51.460Z,24.80
2022-10-21T23:28:21.448Z,24.80
2022-10-21T23:30:51.515Z,24.80
2022-10-21T23:33:21.528Z,24.80
2022-10-21T23:35:52.300Z,24.80
2022-10-21T23:38:22.348Z,24.80
2022-10-21T23:40:52.366Z,24.80
2022-10-21T23:43:22.438Z,24.80
2022-10-21T23:45:52.413Z,24.80
2022-10-21T23:48:22.468Z,24.80
2022-10-21T23:50:52.474Z,24.80
2022-10-21T23:53:22.486Z,24.80
2022-10-21T23:55:52.670Z,24.80
2022-10-21T23:58:22.690Z,24.80
